sensor_id;sensor_type;location;lat;lon;timestamp;temperature;humidity
8666;DHT22;4370;48.916;8.380;2022-08-20T00:01:26;20.60;98.00
8666;DHT22;4370;48.916;8.380;2022-08-20T00:03:51;20.80;98.90
8666;DHT22;4370;48.916;8.380;2022-08-20T00:06:21;20.40;98.60
8666;DHT22;4370;48.916;8.380;2022-08-20T00:08:48;20.30;98.40
8666;DHT22;4370;48.916;8.380;2022-08-20T00:11:20;20.60;99.00
8666;DHT22;4370;48.916;8.380;2022-08-20T00:13:50;20.40;99.10
8666;DHT22;4370;48.916;8.380;2022-08-20T00:16:17;20.60;89.20
8666;DHT22;4370;48.916;8.380;2022-08-20T00:18:43;20.60;99.60
8666;DHT22;4370;48.916;8.380;2022-08-20T00:21:12;20.70;99.80
8666;DHT22;4370;48.916;8.380;2022-08-20T00:23:40;20.60;90.10
8666;DHT22;4370;48.916;8.380;2022-08-20T00:26:06;20.20;90.00
8666;DHT22;4370;48.916;8.380;2022-08-20T00:28:32;20.70;90.30
8666;DHT22;4370;48.916;8.380;2022-08-20T00:30:58;20.70;90.30
8666;DHT22;4370;48.916;8.380;2022-08-20T00:33:24;20.50;90.30
8666;DHT22;4370;48.916;8.380;2022-08-20T00:35:52;20.50;99.90
8666;DHT22;4370;48.916;8.380;2022-08-20T00:38:20;20.90;99.90
8666;DHT22;4370;48.916;8.380;2022-08-20T00:40:56;21.20;99.80
8666;DHT22;4370;48.916;8.380;2022-08-20T00:43:29;20.70;99.90
8666;DHT22;4370;48.916;8.380;2022-08-20T00:45:56;21.00;90.50
8666;DHT22;4370;48.916;8.380;2022-08-20T00:48:24;21.00;90.40
8666;DHT22;4370;48.916;8.380;2022-08-20T00:50:50;21.10;99.90
8666;DHT22;4370;48.916;8.380;2022-08-20T00:53:19;21.00;99.90
8666;DHT22;4370;48.916;8.380;2022-08-20T00:55:45;20.40;90.30
8666;DHT22;4370;48.916;8.380;2022-08-20T00:58:11;21.50;90.80
8666;DHT22;4370;48.916;8.380;2022-08-20T01:00:43;20.30;90.40
8666;DHT22;4370;48.916;8.380;2022-08-20T01:03:11;20.90;99.90
8666;DHT22;4370;48.916;8.380;2022-08-20T01:05:39;21.00;99.90
8666;DHT22;4370;48.916;8.380;2022-08-20T01:08:05;21.00;99.90
8666;DHT22;4370;48.916;8.380;2022-08-20T01:10:36;21.10;99.90
8666;DHT22;4370;48.916;8.380;2022-08-20T01:13:06;20.70;99.90
8666;DHT22;4370;48.916;8.380;2022-08-20T01:15:36;20.80;99.90
8666;DHT22;4370;48.916;8.380;2022-08-20T01:18:04;21.20;99.90
8666;DHT22;4370;48.916;8.380;2022-08-20T01:20:33;20.80;99.90
8666;DHT22;4370;48.916;8.380;2022-08-20T01:26:08;20.80;91.60
8666;DHT22;4370;48.916;8.380;2022-08-20T01:31:10;20.80;99.90
8666;DHT22;4370;48.916;8.380;2022-08-20T01:33:36;20.70;92.10
8666;DHT22;4370;48.916;8.380;2022-08-20T01:36:04;20.70;92.20
8666;DHT22;4370;48.916;8.380;2022-08-20T01:38:30;20.70;92.40
8666;DHT22;4370;48.916;8.380;2022-08-20T01:41:17;20.80;99.90
8666;DHT22;4370;48.916;8.380;2022-08-20T01:43:45;20.70;99.90
8666;DHT22;4370;48.916;8.380;2022-08-20T01:46:12;20.40;99.90
8666;DHT22;4370;48.916;8.380;2022-08-20T01:48:38;20.50;99.90
8666;DHT22;4370;48.916;8.380;2022-08-20T01:51:12;20.70;99.90
8666;DHT22;4370;48.916;8.380;2022-08-20T01:53:42;20.50;99.90
8666;DHT22;4370;48.916;8.380;2022-08-20T01:56:11;20.60;93.10
8666;DHT22;4370;48.916;8.380;2022-08-20T01:58:41;20.70;99.90
8666;DHT22;4370;48.916;8.380;2022-08-20T02:01:16;20.70;93.20
8666;DHT22;4370;48.916;8.380;2022-08-20T02:03:42;21.00;99.90
8666;DHT22;4370;48.916;8.380;2022-08-20T02:06:08;20.80;93.20
8666;DHT22;4370;48.916;8.380;2022-08-20T02:08:34;20.70;99.90
8666;DHT22;4370;48.916;8.380;2022-08-20T02:11:00;20.80;99.90
8666;DHT22;4370;48.916;8.380;2022-08-20T02:13:26;21.10;99.90
8666;DHT22;4370;48.916;8.380;2022-08-20T02:15:52;20.70;99.90
8666;DHT22;4370;48.916;8.380;2022-08-20T02:18:17;20.50;99.90
8666;DHT22;4370;48.916;8.380;2022-08-20T02:20:45;20.80;99.90
8666;DHT22;4370;48.916;8.380;2022-08-20T02:23:11;20.90;93.60
8666;DHT22;4370;48.916;8.380;2022-08-20T02:25:38;20.80;99.90
8666;DHT22;4370;48.916;8.380;2022-08-20T02:28:09;20.90;93.20
8666;DHT22;4370;48.916;8.380;2022-08-20T02:30:40;21.20;99.90
8666;DHT22;4370;48.916;8.380;2022-08-20T02:33:09;20.90;99.90
8666;DHT22;4370;48.916;8.380;2022-08-20T02:35:37;20.80;99.90
8666;DHT22;4370;48.916;8.380;2022-08-20T02:38:03;20.90;99.90
8666;DHT22;4370;48.916;8.380;2022-08-20T02:40:30;21.00;99.90
8666;DHT22;4370;48.916;8.380;2022-08-20T02:42:56;20.90;99.90
8666;DHT22;4370;48.916;8.380;2022-08-20T02:45:22;21.20;99.90
8666;DHT22;4370;48.916;8.380;2022-08-20T02:47:48;21.00;99.90
8666;DHT22;4370;48.916;8.380;2022-08-20T02:50:19;20.70;99.90
8666;DHT22;4370;48.916;8.380;2022-08-20T02:52:44;21.00;93.70
8666;DHT22;4370;48.916;8.380;2022-08-20T02:55:11;21.00;93.80
8666;DHT22;4370;48.916;8.380;2022-08-20T02:57:37;20.80;99.90
8666;DHT22;4370;48.916;8.380;2022-08-20T03:00:11;20.90;93.90
8666;DHT22;4370;48.916;8.380;2022-08-20T03:02:37;21.10;99.90
8666;DHT22;4370;48.916;8.380;2022-08-20T03:05:03;21.00;94.00
8666;DHT22;4370;48.916;8.380;2022-08-20T03:07:29;20.80;99.90
8666;DHT22;4370;48.916;8.380;2022-08-20T03:09:54;20.80;99.90
8666;DHT22;4370;48.916;8.380;2022-08-20T03:12:20;20.80;99.90
8666;DHT22;4370;48.916;8.380;2022-08-20T03:14:45;20.80;94.30
8666;DHT22;4370;48.916;8.380;2022-08-20T03:17:11;20.70;99.90
8666;DHT22;4370;48.916;8.380;2022-08-20T03:19:36;20.80;94.40
8666;DHT22;4370;48.916;8.380;2022-08-20T03:22:02;20.80;94.40
8666;DHT22;4370;48.916;8.380;2022-08-20T03:24:28;20.70;99.90
8666;DHT22;4370;48.916;8.380;2022-08-20T03:26:53;20.90;99.90
8666;DHT22;4370;48.916;8.380;2022-08-20T03:29:19;20.80;94.70
8666;DHT22;4370;48.916;8.380;2022-08-20T03:31:44;21.30;94.90
8666;DHT22;4370;48.916;8.380;2022-08-20T03:34:10;20.80;94.70
8666;DHT22;4370;48.916;8.380;2022-08-20T03:36:36;20.70;94.70
8666;DHT22;4370;48.916;8.380;2022-08-20T03:39:05;20.80;99.90
8666;DHT22;4370;48.916;8.380;2022-08-20T03:41:31;20.70;94.80
8666;DHT22;4370;48.916;8.380;2022-08-20T03:43:57;20.70;94.90
8666;DHT22;4370;48.916;8.380;2022-08-20T03:46:23;20.70;95.00
8666;DHT22;4370;48.916;8.380;2022-08-20T03:48:49;20.50;99.90
8666;DHT22;4370;48.916;8.380;2022-08-20T03:51:15;20.60;95.10
8666;DHT22;4370;48.916;8.380;2022-08-20T03:53:41;19.80;94.80
8666;DHT22;4370;48.916;8.380;2022-08-20T03:56:06;21.20;95.50
8666;DHT22;4370;48.916;8.380;2022-08-20T03:58:33;20.60;95.00
8666;DHT22;4370;48.916;8.380;2022-08-20T04:00:59;20.50;99.90
8666;DHT22;4370;48.916;8.380;2022-08-20T04:03:25;20.60;99.90
8666;DHT22;4370;48.916;8.380;2022-08-20T04:05:51;19.90;95.10
8666;DHT22;4370;48.916;8.380;2022-08-20T04:08:23;20.50;99.90
8666;DHT22;4370;48.916;8.380;2022-08-20T04:10:50;20.60;99.90
8666;DHT22;4370;48.916;8.380;2022-08-20T04:13:18;20.50;95.50
8666;DHT22;4370;48.916;8.380;2022-08-20T04:15:44;20.50;95.60
8666;DHT22;4370;48.916;8.380;2022-08-20T04:18:11;20.50;95.70
8666;DHT22;4370;48.916;8.380;2022-08-20T04:20:38;20.30;95.70
8666;DHT22;4370;48.916;8.380;2022-08-20T04:23:04;20.80;99.90
8666;DHT22;4370;48.916;8.380;2022-08-20T04:25:32;20.70;99.90
8666;DHT22;4370;48.916;8.380;2022-08-20T04:27:59;22.20;96.70
8666;DHT22;4370;48.916;8.380;2022-08-20T04:30:26;20.40;96.00
8666;DHT22;4370;48.916;8.380;2022-08-20T04:32:53;21.00;96.30
8666;DHT22;4370;48.916;8.380;2022-08-20T04:35:19;21.20;96.40
8666;DHT22;4370;48.916;8.380;2022-08-20T04:37:46;20.40;96.10
8666;DHT22;4370;48.916;8.380;2022-08-20T04:40:16;20.40;96.20
8666;DHT22;4370;48.916;8.380;2022-08-20T04:43:00;20.40;96.20
8666;DHT22;4370;48.916;8.380;2022-08-20T04:45:26;20.40;96.30
8666;DHT22;4370;48.916;8.380;2022-08-20T04:50:19;20.60;99.90
8666;DHT22;4370;48.916;8.380;2022-08-20T04:52:45;20.70;99.90
8666;DHT22;4370;48.916;8.380;2022-08-20T04:55:12;21.20;96.80
8666;DHT22;4370;48.916;8.380;2022-08-20T04:57:38;20.40;96.50
8666;DHT22;4370;48.916;8.380;2022-08-20T05:00:11;20.30;96.50
8666;DHT22;4370;48.916;8.380;2022-08-20T05:05:07;20.50;96.40
8666;DHT22;4370;48.916;8.380;2022-08-20T05:07:41;20.50;96.60
8666;DHT22;4370;48.916;8.380;2022-08-20T05:10:08;19.80;96.40
8666;DHT22;4370;48.916;8.380;2022-08-20T05:12:34;20.40;99.90
8666;DHT22;4370;48.916;8.380;2022-08-20T05:15:00;19.60;96.60
8666;DHT22;4370;48.916;8.380;2022-08-20T05:17:25;20.30;99.90
8666;DHT22;4370;48.916;8.380;2022-08-20T05:19:51;20.30;97.10
8666;DHT22;4370;48.916;8.380;2022-08-20T05:22:17;20.20;99.90
8666;DHT22;4370;48.916;8.380;2022-08-20T05:24:43;20.40;99.90
8666;DHT22;4370;48.916;8.380;2022-08-20T05:27:09;20.90;97.50
8666;DHT22;4370;48.916;8.380;2022-08-20T05:29:34;20.50;97.20
8666;DHT22;4370;48.916;8.380;2022-08-20T05:32:00;20.70;97.10
8666;DHT22;4370;48.916;8.380;2022-08-20T05:34:27;21.30;99.90
8666;DHT22;4370;48.916;8.380;2022-08-20T05:36:52;21.00;96.60
8666;DHT22;4370;48.916;8.380;2022-08-20T05:39:19;21.00;99.90
8666;DHT22;4370;48.916;8.380;2022-08-20T05:44:13;21.60;99.90
8666;DHT22;4370;48.916;8.380;2022-08-20T05:46:41;20.70;95.60
8666;DHT22;4370;48.916;8.380;2022-08-20T05:49:09;21.70;99.90
8666;DHT22;4370;48.916;8.380;2022-08-20T05:51:36;21.50;99.90
8666;DHT22;4370;48.916;8.380;2022-08-20T05:54:02;21.50;99.90
8666;DHT22;4370;48.916;8.380;2022-08-20T05:56:29;21.60;95.10
8666;DHT22;4370;48.916;8.380;2022-08-20T05:58:55;21.60;99.90
8666;DHT22;4370;48.916;8.380;2022-08-20T06:01:21;21.90;95.00
8666;DHT22;4370;48.916;8.380;2022-08-20T06:03:47;21.20;94.60
8666;DHT22;4370;48.916;8.380;2022-08-20T06:06:31;21.40;94.40
8666;DHT22;4370;48.916;8.380;2022-08-20T06:08:57;23.10;99.90
8666;DHT22;4370;48.916;8.380;2022-08-20T06:11:22;24.70;94.10
8666;DHT22;4370;48.916;8.380;2022-08-20T06:13:48;24.30;91.00
8666;DHT22;4370;48.916;8.380;2022-08-20T06:16:13;25.90;84.70
8666;DHT22;4370;48.916;8.380;2022-08-20T06:18:40;26.70;75.50
8666;DHT22;4370;48.916;8.380;2022-08-20T06:21:05;28.10;70.10
8666;DHT22;4370;48.916;8.380;2022-08-20T06:23:31;28.90;67.30
8666;DHT22;4370;48.916;8.380;2022-08-20T06:25:56;29.60;62.70
8666;DHT22;4370;48.916;8.380;2022-08-20T06:28:22;30.00;59.60
8666;DHT22;4370;48.916;8.380;2022-08-20T06:30:48;29.90;58.50
8666;DHT22;4370;48.916;8.380;2022-08-20T06:33:14;29.20;59.00
8666;DHT22;4370;48.916;8.380;2022-08-20T06:35:40;28.30;60.50
8666;DHT22;4370;48.916;8.380;2022-08-20T06:38:08;27.60;62.60
8666;DHT22;4370;48.916;8.380;2022-08-20T06:40:34;27.00;64.90
8666;DHT22;4370;48.916;8.380;2022-08-20T06:43:00;25.50;66.70
8666;DHT22;4370;48.916;8.380;2022-08-20T06:45:29;24.60;68.20
8666;DHT22;4370;48.916;8.380;2022-08-20T06:47:57;24.80;70.60
8666;DHT22;4370;48.916;8.380;2022-08-20T06:50:29;24.70;72.00
8666;DHT22;4370;48.916;8.380;2022-08-20T06:52:56;24.50;72.80
8666;DHT22;4370;48.916;8.380;2022-08-20T06:55:22;24.30;73.70
8666;DHT22;4370;48.916;8.380;2022-08-20T06:58:03;23.80;74.00
8666;DHT22;4370;48.916;8.380;2022-08-20T07:00:30;23.60;74.40
8666;DHT22;4370;48.916;8.380;2022-08-20T07:02:58;24.70;75.10
8666;DHT22;4370;48.916;8.380;2022-08-20T07:05:26;25.10;75.00
8666;DHT22;4370;48.916;8.380;2022-08-20T07:07:51;23.80;73.90
8666;DHT22;4370;48.916;8.380;2022-08-20T07:10:18;23.90;74.50
8666;DHT22;4370;48.916;8.380;2022-08-20T07:12:44;24.40;75.40
8666;DHT22;4370;48.916;8.380;2022-08-20T07:15:11;23.60;75.00
8666;DHT22;4370;48.916;8.380;2022-08-20T07:17:38;24.20;76.10
8666;DHT22;4370;48.916;8.380;2022-08-20T07:20:10;23.50;75.90
8666;DHT22;4370;48.916;8.380;2022-08-20T07:22:36;24.10;76.80
8666;DHT22;4370;48.916;8.380;2022-08-20T07:25:04;24.20;77.20
8666;DHT22;4370;48.916;8.380;2022-08-20T07:27:31;24.30;77.00
8666;DHT22;4370;48.916;8.380;2022-08-20T07:29:56;24.30;76.90
8666;DHT22;4370;48.916;8.380;2022-08-20T07:32:41;24.20;76.70
8666;DHT22;4370;48.916;8.380;2022-08-20T07:35:09;24.70;77.50
8666;DHT22;4370;48.916;8.380;2022-08-20T07:37:40;24.20;77.40
8666;DHT22;4370;48.916;8.380;2022-08-20T07:40:12;24.20;77.50
8666;DHT22;4370;48.916;8.380;2022-08-20T07:42:38;24.30;77.50
8666;DHT22;4370;48.916;8.380;2022-08-20T07:45:07;24.20;77.40
8666;DHT22;4370;48.916;8.380;2022-08-20T07:47:41;24.10;77.30
8666;DHT22;4370;48.916;8.380;2022-08-20T07:50:09;24.00;77.70
8666;DHT22;4370;48.916;8.380;2022-08-20T07:52:36;23.80;77.90
8666;DHT22;4370;48.916;8.380;2022-08-20T07:55:03;23.70;93.90
8666;DHT22;4370;48.916;8.380;2022-08-20T07:57:30;23.90;79.00
8666;DHT22;4370;48.916;8.380;2022-08-20T07:59:56;23.60;79.40
8666;DHT22;4370;48.916;8.380;2022-08-20T08:02:23;23.50;94.70
8666;DHT22;4370;48.916;8.380;2022-08-20T08:04:50;23.30;80.30
8666;DHT22;4370;48.916;8.380;2022-08-20T08:07:16;22.20;81.70
8666;DHT22;4370;48.916;8.380;2022-08-20T08:09:42;22.70;98.30
8666;DHT22;4370;48.916;8.380;2022-08-20T08:12:10;22.70;87.20
8666;DHT22;4370;48.916;8.380;2022-08-20T08:14:37;22.10;90.30
8666;DHT22;4370;48.916;8.380;2022-08-20T08:17:04;21.80;99.90
8666;DHT22;4370;48.916;8.380;2022-08-20T08:19:34;21.80;95.30
8666;DHT22;4370;48.916;8.380;2022-08-20T08:22:04;21.60;96.90
8666;DHT22;4370;48.916;8.380;2022-08-20T08:24:30;21.40;98.20
8666;DHT22;4370;48.916;8.380;2022-08-20T08:26:55;20.80;98.70
8666;DHT22;4370;48.916;8.380;2022-08-20T08:29:21;21.40;99.70
8666;DHT22;4370;48.916;8.380;2022-08-20T08:31:46;21.30;99.90
8666;DHT22;4370;48.916;8.380;2022-08-20T08:34:12;21.30;99.90
8666;DHT22;4370;48.916;8.380;2022-08-20T08:36:38;21.30;99.90
8666;DHT22;4370;48.916;8.380;2022-08-20T08:39:04;21.70;99.90
8666;DHT22;4370;48.916;8.380;2022-08-20T08:41:33;22.40;99.90
8666;DHT22;4370;48.916;8.380;2022-08-20T08:44:08;21.30;99.90
8666;DHT22;4370;48.916;8.380;2022-08-20T08:46:44;21.70;99.90
8666;DHT22;4370;48.916;8.380;2022-08-20T08:49:18;21.90;99.90
8666;DHT22;4370;48.916;8.380;2022-08-20T08:51:49;21.50;99.90
8666;DHT22;4370;48.916;8.380;2022-08-20T08:54:18;21.60;99.90
8666;DHT22;4370;48.916;8.380;2022-08-20T08:56:45;21.80;99.90
8666;DHT22;4370;48.916;8.380;2022-08-20T08:59:11;22.10;99.90
8666;DHT22;4370;48.916;8.380;2022-08-20T09:01:52;22.30;99.90
8666;DHT22;4370;48.916;8.380;2022-08-20T09:04:19;22.60;99.90
8666;DHT22;4370;48.916;8.380;2022-08-20T09:06:47;23.00;99.90
8666;DHT22;4370;48.916;8.380;2022-08-20T09:09:20;23.70;99.90
8666;DHT22;4370;48.916;8.380;2022-08-20T09:11:50;23.70;98.40
8666;DHT22;4370;48.916;8.380;2022-08-20T09:14:17;24.10;97.80
8666;DHT22;4370;48.916;8.380;2022-08-20T09:16:43;24.10;96.50
8666;DHT22;4370;48.916;8.380;2022-08-20T09:19:09;24.10;99.90
8666;DHT22;4370;48.916;8.380;2022-08-20T09:21:34;24.10;95.30
8666;DHT22;4370;48.916;8.380;2022-08-20T09:24:00;24.00;94.80
8666;DHT22;4370;48.916;8.380;2022-08-20T09:26:25;24.00;94.90
8666;DHT22;4370;48.916;8.380;2022-08-20T09:28:51;23.90;94.90
8666;DHT22;4370;48.916;8.380;2022-08-20T09:31:17;23.80;99.90
8666;DHT22;4370;48.916;8.380;2022-08-20T09:33:42;23.80;94.80
8666;DHT22;4370;48.916;8.380;2022-08-20T09:36:08;23.80;94.80
8666;DHT22;4370;48.916;8.380;2022-08-20T09:38:33;23.70;94.80
8666;DHT22;4370;48.916;8.380;2022-08-20T09:40:59;24.00;94.80
8666;DHT22;4370;48.916;8.380;2022-08-20T09:43:25;24.20;94.70
8666;DHT22;4370;48.916;8.380;2022-08-20T09:45:50;24.90;94.20
8666;DHT22;4370;48.916;8.380;2022-08-20T09:48:16;24.50;92.80
8666;DHT22;4370;48.916;8.380;2022-08-20T09:50:45;24.70;91.90
8666;DHT22;4370;48.916;8.380;2022-08-20T09:53:12;25.60;90.90
8666;DHT22;4370;48.916;8.380;2022-08-20T09:55:40;24.80;90.20
8666;DHT22;4370;48.916;8.380;2022-08-20T10:00:46;25.50;90.40
8666;DHT22;4370;48.916;8.380;2022-08-20T10:03:13;25.40;90.40
8666;DHT22;4370;48.916;8.380;2022-08-20T10:05:38;24.90;90.10
8666;DHT22;4370;48.916;8.380;2022-08-20T10:08:05;24.80;89.80
8666;DHT22;4370;48.916;8.380;2022-08-20T10:10:31;25.20;89.00
8666;DHT22;4370;48.916;8.380;2022-08-20T10:12:56;25.00;88.00
8666;DHT22;4370;48.916;8.380;2022-08-20T10:17:48;25.50;85.20
8666;DHT22;4370;48.916;8.380;2022-08-20T10:20:14;25.60;83.80
8666;DHT22;4370;48.916;8.380;2022-08-20T10:22:40;27.00;83.40
8666;DHT22;4370;48.916;8.380;2022-08-20T10:25:06;26.20;80.90
8666;DHT22;4370;48.916;8.380;2022-08-20T10:27:32;26.90;79.20
8666;DHT22;4370;48.916;8.380;2022-08-20T10:29:58;27.60;76.70
8666;DHT22;4370;48.916;8.380;2022-08-20T10:32:23;27.80;91.30
8666;DHT22;4370;48.916;8.380;2022-08-20T10:34:49;28.30;73.10
8666;DHT22;4370;48.916;8.380;2022-08-20T10:37:16;27.20;71.30
8666;DHT22;4370;48.916;8.380;2022-08-20T10:39:44;27.10;91.10
8666;DHT22;4370;48.916;8.380;2022-08-20T10:42:10;26.50;91.40
8666;DHT22;4370;48.916;8.380;2022-08-20T10:44:36;25.80;92.40
8666;DHT22;4370;48.916;8.380;2022-08-20T10:47:17;25.40;93.60
8666;DHT22;4370;48.916;8.380;2022-08-20T10:49:43;25.10;94.00
8666;DHT22;4370;48.916;8.380;2022-08-20T10:52:09;24.80;94.60
8666;DHT22;4370;48.916;8.380;2022-08-20T10:57:02;24.20;81.60
8666;DHT22;4370;48.916;8.380;2022-08-20T10:59:27;24.20;95.40
8666;DHT22;4370;48.916;8.380;2022-08-20T11:09:11;23.90;95.10
8666;DHT22;4370;48.916;8.380;2022-08-20T11:18:55;25.20;94.30
8666;DHT22;4370;48.916;8.380;2022-08-20T11:23:46;25.80;93.60
8666;DHT22;4370;48.916;8.380;2022-08-20T11:26:21;25.20;78.20
8666;DHT22;4370;48.916;8.380;2022-08-20T11:28:47;26.30;92.60
8666;DHT22;4370;48.916;8.380;2022-08-20T11:31:12;26.30;92.70
8666;DHT22;4370;48.916;8.380;2022-08-20T11:36:04;26.90;75.00
8666;DHT22;4370;48.916;8.380;2022-08-20T11:45:54;27.60;69.00
8666;DHT22;4370;48.916;8.380;2022-08-20T11:50:46;27.60;85.70
8666;DHT22;4370;48.916;8.380;2022-08-20T11:58:04;27.30;82.50
8666;DHT22;4370;48.916;8.380;2022-08-20T12:00:30;27.30;82.00
8666;DHT22;4370;48.916;8.380;2022-08-20T12:07:48;27.30;80.60
8666;DHT22;4370;48.916;8.380;2022-08-20T12:10:14;26.90;80.90
8666;DHT22;4370;48.916;8.380;2022-08-20T12:15:07;26.90;80.90
8666;DHT22;4370;48.916;8.380;2022-08-20T12:17:35;26.90;62.10
8666;DHT22;4370;48.916;8.380;2022-08-20T12:20:04;27.30;82.00
8666;DHT22;4370;48.916;8.380;2022-08-20T12:22:30;26.80;81.40
8666;DHT22;4370;48.916;8.380;2022-08-20T12:24:56;27.10;61.00
8666;DHT22;4370;48.916;8.380;2022-08-20T12:27:28;27.40;58.80
8666;DHT22;4370;48.916;8.380;2022-08-20T12:29:56;27.40;77.40
8666;DHT22;4370;48.916;8.380;2022-08-20T12:32:25;27.40;58.70
8666;DHT22;4370;48.916;8.380;2022-08-20T12:34:51;27.60;76.70
8666;DHT22;4370;48.916;8.380;2022-08-20T12:37:20;27.60;56.90
8666;DHT22;4370;48.916;8.380;2022-08-20T12:39:48;27.60;75.50
8666;DHT22;4370;48.916;8.380;2022-08-20T12:42:14;27.70;74.40
8666;DHT22;4370;48.916;8.380;2022-08-20T12:44:41;27.10;74.60
8666;DHT22;4370;48.916;8.380;2022-08-20T12:47:28;27.50;75.40
8666;DHT22;4370;48.916;8.380;2022-08-20T12:50:02;27.00;74.80
8666;DHT22;4370;48.916;8.380;2022-08-20T12:52:28;27.30;55.60
8666;DHT22;4370;48.916;8.380;2022-08-20T12:54:55;28.00;55.70
8666;DHT22;4370;48.916;8.380;2022-08-20T12:57:28;26.90;74.10
8666;DHT22;4370;48.916;8.380;2022-08-20T12:59:59;27.50;73.40
8666;DHT22;4370;48.916;8.380;2022-08-20T13:02:25;26.70;74.10
8666;DHT22;4370;48.916;8.380;2022-08-20T13:04:51;27.10;73.10
8666;DHT22;4370;48.916;8.380;2022-08-20T13:07:17;27.00;74.40
8666;DHT22;4370;48.916;8.380;2022-08-20T13:12:09;27.30;73.30
8666;DHT22;4370;48.916;8.380;2022-08-20T13:14:36;27.10;75.30
8666;DHT22;4370;48.916;8.380;2022-08-20T13:17:03;28.30;55.70
8666;DHT22;4370;48.916;8.380;2022-08-20T13:19:30;26.80;73.80
8666;DHT22;4370;48.916;8.380;2022-08-20T13:21:57;27.00;71.70
8666;DHT22;4370;48.916;8.380;2022-08-20T13:26:49;27.10;71.90
8666;DHT22;4370;48.916;8.380;2022-08-20T13:29:16;26.80;71.40
8666;DHT22;4370;48.916;8.380;2022-08-20T13:31:41;27.20;73.60
8666;DHT22;4370;48.916;8.380;2022-08-20T13:34:08;27.20;72.60
8666;DHT22;4370;48.916;8.380;2022-08-20T13:36:33;27.20;72.10
8666;DHT22;4370;48.916;8.380;2022-08-20T13:39:00;27.20;72.30
8666;DHT22;4370;48.916;8.380;2022-08-20T13:41:26;26.90;73.10
8666;DHT22;4370;48.916;8.380;2022-08-20T13:43:51;27.10;72.50
8666;DHT22;4370;48.916;8.380;2022-08-20T13:51:09;27.20;52.80
8666;DHT22;4370;48.916;8.380;2022-08-20T13:53:34;27.50;52.90
8666;DHT22;4370;48.916;8.380;2022-08-20T14:03:18;27.50;68.80
8666;DHT22;4370;48.916;8.380;2022-08-20T14:08:12;27.10;66.30
8666;DHT22;4370;48.916;8.380;2022-08-20T14:10:38;27.10;66.30
8666;DHT22;4370;48.916;8.380;2022-08-20T14:15:31;27.00;66.60
8666;DHT22;4370;48.916;8.380;2022-08-20T14:17:57;27.20;67.30
8666;DHT22;4370;48.916;8.380;2022-08-20T14:20:26;27.00;66.20
8666;DHT22;4370;48.916;8.380;2022-08-20T14:22:53;27.10;65.70
8666;DHT22;4370;48.916;8.380;2022-08-20T14:25:19;27.00;44.80
8666;DHT22;4370;48.916;8.380;2022-08-20T14:27:46;26.80;63.80
8666;DHT22;4370;48.916;8.380;2022-08-20T14:30:14;27.00;65.20
8666;DHT22;4370;48.916;8.380;2022-08-20T14:32:40;27.00;65.60
8666;DHT22;4370;48.916;8.380;2022-08-20T14:35:07;26.70;65.20
8666;DHT22;4370;48.916;8.380;2022-08-20T14:37:36;26.80;64.10
8666;DHT22;4370;48.916;8.380;2022-08-20T14:40:11;27.00;63.70
8666;DHT22;4370;48.916;8.380;2022-08-20T14:42:37;26.90;63.30
8666;DHT22;4370;48.916;8.380;2022-08-20T14:45:04;26.90;61.70
8666;DHT22;4370;48.916;8.380;2022-08-20T14:47:42;27.00;61.40
8666;DHT22;4370;48.916;8.380;2022-08-20T14:50:18;27.00;61.70
8666;DHT22;4370;48.916;8.380;2022-08-20T14:52:43;26.60;61.10
8666;DHT22;4370;48.916;8.380;2022-08-20T14:55:13;27.00;61.10
8666;DHT22;4370;48.916;8.380;2022-08-20T14:57:39;27.00;60.10
8666;DHT22;4370;48.916;8.380;2022-08-20T15:00:08;26.90;59.90
8666;DHT22;4370;48.916;8.380;2022-08-20T15:02:35;26.80;59.60
8666;DHT22;4370;48.916;8.380;2022-08-20T15:05:01;26.70;58.10
8666;DHT22;4370;48.916;8.380;2022-08-20T15:07:28;26.90;57.70
8666;DHT22;4370;48.916;8.380;2022-08-20T15:09:55;26.80;58.30
8666;DHT22;4370;48.916;8.380;2022-08-20T15:12:22;26.80;58.00
8666;DHT22;4370;48.916;8.380;2022-08-20T15:14:47;26.80;58.60
8666;DHT22;4370;48.916;8.380;2022-08-20T15:17:21;26.50;59.60
8666;DHT22;4370;48.916;8.380;2022-08-20T15:19:47;26.80;58.40
8666;DHT22;4370;48.916;8.380;2022-08-20T15:22:13;26.80;57.30
8666;DHT22;4370;48.916;8.380;2022-08-20T15:27:13;26.80;55.60
8666;DHT22;4370;48.916;8.380;2022-08-20T15:29:39;26.80;55.70
8666;DHT22;4370;48.916;8.380;2022-08-20T15:32:05;26.60;55.10
8666;DHT22;4370;48.916;8.380;2022-08-20T15:34:33;26.70;55.80
8666;DHT22;4370;48.916;8.380;2022-08-20T15:37:19;26.60;55.70
8666;DHT22;4370;48.916;8.380;2022-08-20T15:39:45;26.60;57.10
8666;DHT22;4370;48.916;8.380;2022-08-20T15:42:12;26.60;56.60
8666;DHT22;4370;48.916;8.380;2022-08-20T15:44:38;26.60;56.30
8666;DHT22;4370;48.916;8.380;2022-08-20T15:47:20;26.50;56.30
8666;DHT22;4370;48.916;8.380;2022-08-20T15:49:48;26.50;56.10
8666;DHT22;4370;48.916;8.380;2022-08-20T15:52:15;26.50;56.30
8666;DHT22;4370;48.916;8.380;2022-08-20T15:54:41;26.50;56.20
8666;DHT22;4370;48.916;8.380;2022-08-20T16:08:26;26.30;56.70
8666;DHT22;4370;48.916;8.380;2022-08-20T16:13:36;26.10;56.70
8666;DHT22;4370;48.916;8.380;2022-08-20T16:16:03;26.20;56.90
8666;DHT22;4370;48.916;8.380;2022-08-20T16:18:34;26.30;58.10
8666;DHT22;4370;48.916;8.380;2022-08-20T16:21:01;26.10;56.90
8666;DHT22;4370;48.916;8.380;2022-08-20T16:23:32;26.10;38.30
8666;DHT22;4370;48.916;8.380;2022-08-20T16:28:48;26.00;57.60
8666;DHT22;4370;48.916;8.380;2022-08-20T16:31:19;26.00;57.70
8666;DHT22;4370;48.916;8.380;2022-08-20T16:39:03;25.70;57.90
8666;DHT22;4370;48.916;8.380;2022-08-20T16:41:42;25.60;39.10
8666;DHT22;4370;48.916;8.380;2022-08-20T16:46:50;25.70;58.80
8666;DHT22;4370;48.916;8.380;2022-08-20T16:49:17;25.50;58.40
8666;DHT22;4370;48.916;8.380;2022-08-20T16:51:49;25.60;58.70
8666;DHT22;4370;48.916;8.380;2022-08-20T16:54:16;25.50;40.00
8666;DHT22;4370;48.916;8.380;2022-08-20T16:56:45;25.50;56.80
8666;DHT22;4370;48.916;8.380;2022-08-20T16:59:19;25.50;58.70
8666;DHT22;4370;48.916;8.380;2022-08-20T17:01:53;25.50;58.90
8666;DHT22;4370;48.916;8.380;2022-08-20T17:04:24;25.40;59.00
8666;DHT22;4370;48.916;8.380;2022-08-20T17:06:50;25.30;59.40
8666;DHT22;4370;48.916;8.380;2022-08-20T17:09:40;25.20;39.80
8666;DHT22;4370;48.916;8.380;2022-08-20T17:12:21;25.20;58.70
8666;DHT22;4370;48.916;8.380;2022-08-20T17:14:53;25.20;57.50
8666;DHT22;4370;48.916;8.380;2022-08-20T17:20:04;25.10;57.20
8666;DHT22;4370;48.916;8.380;2022-08-20T17:22:41;25.00;56.50
8666;DHT22;4370;48.916;8.380;2022-08-20T17:25:17;25.00;56.90
8666;DHT22;4370;48.916;8.380;2022-08-20T17:27:44;24.90;37.80
8666;DHT22;4370;48.916;8.380;2022-08-20T17:30:24;24.90;57.30
8666;DHT22;4370;48.916;8.380;2022-08-20T17:32:58;24.70;57.30
8666;DHT22;4370;48.916;8.380;2022-08-20T17:37:53;24.60;57.80
8666;DHT22;4370;48.916;8.380;2022-08-20T17:40:41;24.70;57.90
8666;DHT22;4370;48.916;8.380;2022-08-20T17:43:24;24.70;58.20
8666;DHT22;4370;48.916;8.380;2022-08-20T17:45:50;24.10;58.30
8666;DHT22;4370;48.916;8.380;2022-08-20T17:48:23;24.40;59.00
8666;DHT22;4370;48.916;8.380;2022-08-20T17:53:32;24.20;40.40
8666;DHT22;4370;48.916;8.380;2022-08-20T17:56:08;24.10;59.80
8666;DHT22;4370;48.916;8.380;2022-08-20T17:58:42;24.00;60.30
8666;DHT22;4370;48.916;8.380;2022-08-20T18:01:11;24.00;41.20
8666;DHT22;4370;48.916;8.380;2022-08-20T18:06:18;23.90;60.70
8666;DHT22;4370;48.916;8.380;2022-08-20T18:08:56;23.70;43.00